createdAt,value
2024-01-14T00:00:35.985Z,7.65
2024-01-14T00:05:40.449Z,8.10
2024-01-14T00:10:44.092Z,8.20
2024-01-14T00:15:47.240Z,8.35
2024-01-14T00:20:50.397Z,8.88
2024-01-14T00:25:53.756Z,9.45
2024-01-14T00:30:56.751Z,8.68
2024-01-14T00:36:04.514Z,8.23
2024-01-14T00:41:08.299Z,7.40
2024-01-14T00:46:10.946Z,6.97
2024-01-14T00:51:14.084Z,6.68
2024-01-14T00:56:18.370Z,5.53
2024-01-14T01:01:22.059Z,6.88
2024-01-14T01:06:26.426Z,6.70
2024-01-14T01:11:30.151Z,6.80
2024-01-14T01:16:34.150Z,6.90
2024-01-14T01:21:38.129Z,6.68
2024-01-14T01:26:41.534Z,6.47
2024-01-14T01:31:48.988Z,6.60
2024-01-14T01:36:54.325Z,7.10
2024-01-14T01:41:56.935Z,7.05
2024-01-14T01:47:00.115Z,7.40
2024-01-14T01:52:06.232Z,6.97
2024-01-14T01:57:09.907Z,6.45
2024-01-14T02:02:13.660Z,6.82
2024-01-14T02:07:17.381Z,7.07
2024-01-14T02:12:20.291Z,6.90
2024-01-14T02:17:22.811Z,6.10
2024-01-14T02:22:29.989Z,5.93
2024-01-14T02:27:35.743Z,5.50
2024-01-14T02:32:40.304Z,5.50
2024-01-14T02:37:45.760Z,6.05
2024-01-14T02:42:48.644Z,6.88
2024-01-14T02:47:51.717Z,6.10
2024-01-14T02:52:55.757Z,6.68
2024-01-14T02:57:59.413Z,7.10
2024-01-14T03:03:02.679Z,7.07
2024-01-14T03:08:07.199Z,7.63
2024-01-14T03:13:10.509Z,7.43
2024-01-14T03:18:14.759Z,7.47
2024-01-14T03:23:17.512Z,7.32
2024-01-14T03:28:20.982Z,6.82
2024-01-14T03:33:24.491Z,8.30
2024-01-14T03:38:27.144Z,6.40
2024-01-14T03:43:30.224Z,7.45
2024-01-14T03:48:34.015Z,7.30
2024-01-14T03:53:40.457Z,7.30
2024-01-14T03:58:44.261Z,6.35
2024-01-14T04:03:50.304Z,7.13
2024-01-14T04:08:55.614Z,7.10
2024-01-14T04:14:00.090Z,6.65
2024-01-14T04:19:08.741Z,7.97
2024-01-14T04:24:15.118Z,8.07
2024-01-14T04:29:18.449Z,7.57
2024-01-14T04:34:21.625Z,6.57
2024-01-14T04:39:26.081Z,6.13
2024-01-14T04:44:29.031Z,7.03
2024-01-14T04:49:33.328Z,7.72
2024-01-14T04:54:36.589Z,7.93
2024-01-14T04:59:39.425Z,7.28
2024-01-14T05:04:42.147Z,7.10
2024-01-14T05:09:45.957Z,7.30
2024-01-14T05:14:49.017Z,7.65
2024-01-14T05:19:53.672Z,7.95
2024-01-14T05:24:56.616Z,7.53
2024-01-14T05:29:59.818Z,7.43
2024-01-14T05:35:02.742Z,7.72
2024-01-14T05:40:07.059Z,7.40
2024-01-14T05:45:12.216Z,7.10
2024-01-14T05:50:16.247Z,7.65
2024-01-14T05:55:19.715Z,7.15
2024-01-14T06:00:25.667Z,6.60
2024-01-14T06:05:29.221Z,6.90
2024-01-14T06:10:32.178Z,6.63
2024-01-14T06:15:36.459Z,7.03
2024-01-14T06:20:40.044Z,6.75
2024-01-14T06:25:42.712Z,6.53
2024-01-14T06:30:45.246Z,6.53
2024-01-14T06:35:48.609Z,6.40
2024-01-14T06:41:02.342Z,6.25
2024-01-14T06:51:13.020Z,6.13
2024-01-14T06:56:19.762Z,5.50
2024-01-14T07:01:23.223Z,6.18
2024-01-14T07:06:27.101Z,6.43
2024-01-14T07:11:30.501Z,6.80
2024-01-14T07:16:34.545Z,6.15
2024-01-14T07:21:37.498Z,5.72
2024-01-14T07:26:41.249Z,5.63
2024-01-14T07:31:44.416Z,6.47
2024-01-14T07:36:48.882Z,6.07
2024-01-14T07:41:52.623Z,6.55
2024-01-14T07:46:56.338Z,6.20
2024-01-14T07:51:59.857Z,6.55
2024-01-14T07:57:03.578Z,6.35
2024-01-14T08:02:08.579Z,8.02
2024-01-14T08:07:11.343Z,6.20
2024-01-14T08:12:14.367Z,6.88
2024-01-14T08:17:17.755Z,6.40
2024-01-14T08:22:22.519Z,6.60
2024-01-14T08:27:26.873Z,5.60
2024-01-14T08:32:32.056Z,7.05
2024-01-14T08:37:34.771Z,6.75
2024-01-14T08:42:38.639Z,7.05
2024-01-14T08:47:41.969Z,6.60
2024-01-14T08:52:47.012Z,6.07
2024-01-14T08:57:50.223Z,5.70
2024-01-14T09:02:52.946Z,6.00
2024-01-14T09:07:56.878Z,6.45
2024-01-14T09:13:00.026Z,6.78
2024-01-14T09:18:03.075Z,6.47
2024-01-14T09:23:06.571Z,6.78
2024-01-14T09:28:09.955Z,7.25
2024-01-14T09:33:13.097Z,8.68
2024-01-14T09:38:15.860Z,7.60
2024-01-14T09:43:19.116Z,7.90
2024-01-14T09:48:25.828Z,8.38
2024-01-14T09:53:29.751Z,10.55
2024-01-14T09:58:33.805Z,10.07
2024-01-14T10:03:37.054Z,8.23
2024-01-14T10:08:40.360Z,8.70
2024-01-14T10:13:43.667Z,8.43
2024-01-14T10:18:46.739Z,9.77
2024-01-14T10:23:49.739Z,9.18
2024-01-14T10:28:53.144Z,9.02
2024-01-14T10:33:56.807Z,9.25
2024-01-14T10:39:03.975Z,8.13
2024-01-14T10:44:11.375Z,8.23
2024-01-14T10:49:14.834Z,8.82
2024-01-14T10:54:40.617Z,8.80
2024-01-14T10:59:46.307Z,10.38
2024-01-14T11:04:52.191Z,11.40
2024-01-14T11:09:55.998Z,13.25
2024-01-14T11:15:07.173Z,10.63
2024-01-14T11:20:17.289Z,12.48
2024-01-14T11:25:24.923Z,12.35
2024-01-14T11:30:49.118Z,11.63
2024-01-14T11:35:52.416Z,12.73
2024-01-14T11:40:56.604Z,18.58
2024-01-14T11:46:01.007Z,21.08
2024-01-14T11:51:05.154Z,11.52
2024-01-14T11:56:09.603Z,12.10
2024-01-14T12:01:18.072Z,11.15
2024-01-14T12:06:22.426Z,13.73
2024-01-14T12:11:26.032Z,15.90
2024-01-14T12:16:30.194Z,19.05
2024-01-14T12:21:34.527Z,13.88
2024-01-14T12:26:39.040Z,17.33
2024-01-14T12:31:53.458Z,14.73
2024-01-14T12:37:03.368Z,16.60
2024-01-14T12:42:09.215Z,18.55
2024-01-14T12:52:17.137Z,15.73
2024-01-14T12:57:24.191Z,14.93
2024-01-14T13:02:27.757Z,15.45
2024-01-14T13:07:31.051Z,16.95
2024-01-14T13:12:34.925Z,13.93
2024-01-14T13:17:38.854Z,17.20
2024-01-14T13:22:43.579Z,14.27
2024-01-14T13:27:46.759Z,13.52
2024-01-14T13:32:50.629Z,15.07
2024-01-14T13:37:54.063Z,14.70
2024-01-14T13:42:58.383Z,12.95
2024-01-14T13:48:01.885Z,13.00
2024-01-14T13:53:05.670Z,12.98
2024-01-14T13:58:09.216Z,12.40
2024-01-14T14:03:12.998Z,11.48
2024-01-14T14:08:16.369Z,11.60
2024-01-14T14:13:19.377Z,18.50
2024-01-14T14:18:25.412Z,18.42
2024-01-14T14:23:29.890Z,15.77
2024-01-14T14:28:33.777Z,18.00
2024-01-14T14:33:37.748Z,20.23
2024-01-14T14:38:47.199Z,22.50
2024-01-14T14:43:50.693Z,17.00
2024-01-14T14:48:55.535Z,16.98
2024-01-14T14:54:12.964Z,13.00
2024-01-14T14:59:21.630Z,11.30
2024-01-14T15:04:38.112Z,11.02
2024-01-14T15:09:45.347Z,11.10
2024-01-14T15:14:50.590Z,20.88
2024-01-14T15:19:54.239Z,12.82
2024-01-14T15:24:58.175Z,11.73
2024-01-14T15:30:04.129Z,12.10
2024-01-14T15:35:07.572Z,14.02
2024-01-14T15:40:13.037Z,15.13
2024-01-14T15:45:16.483Z,19.85
2024-01-14T15:50:20.622Z,20.55
2024-01-14T15:55:24.723Z,23.45
2024-01-14T16:00:28.734Z,19.90
2024-01-14T16:05:32.095Z,23.45
2024-01-14T16:10:34.899Z,29.42
2024-01-14T16:15:38.111Z,25.02
2024-01-14T16:20:44.304Z,23.63
2024-01-14T16:25:51.472Z,28.00
2024-01-14T16:31:05.207Z,37.25
2024-01-14T16:36:17.293Z,26.83
2024-01-14T16:41:20.386Z,20.20
2024-01-14T16:46:23.608Z,17.05
2024-01-14T16:51:29.435Z,16.20
2024-01-14T16:56:38.014Z,16.75
2024-01-14T17:01:41.569Z,18.08
2024-01-14T17:06:44.823Z,21.50
2024-01-14T17:11:48.360Z,18.95
2024-01-14T17:16:51.658Z,23.83
2024-01-14T17:21:54.759Z,20.85
2024-01-14T17:26:57.826Z,20.60
2024-01-14T17:32:00.491Z,19.52
2024-01-14T17:37:04.354Z,25.55
2024-01-14T17:42:07.460Z,21.73
2024-01-14T17:47:12.764Z,21.15
2024-01-14T17:52:15.360Z,18.65
2024-01-14T17:57:18.546Z,16.63
2024-01-14T18:02:21.444Z,18.52
2024-01-14T18:07:24.040Z,18.67
2024-01-14T18:12:26.730Z,18.63
2024-01-14T18:17:30.689Z,18.23
2024-01-14T18:22:34.587Z,20.98
2024-01-14T18:27:37.302Z,20.40
2024-01-14T18:32:45.819Z,17.92
2024-01-14T18:37:51.096Z,16.92
2024-01-14T18:42:54.405Z,17.38
2024-01-14T18:48:00.508Z,23.30
2024-01-14T18:53:06.542Z,26.52
2024-01-14T18:58:11.008Z,23.30
2024-01-14T19:03:14.953Z,24.80
2024-01-14T19:08:18.213Z,23.20
2024-01-14T19:13:20.641Z,19.48
2024-01-14T19:18:24.676Z,19.23
2024-01-14T19:23:29.648Z,17.80
2024-01-14T19:28:32.464Z,15.30
2024-01-14T19:33:35.697Z,14.77
2024-01-14T19:38:39.190Z,12.85
2024-01-14T19:43:44.506Z,12.77
2024-01-14T19:48:47.917Z,14.15
2024-01-14T19:53:51.396Z,14.10
2024-01-14T19:58:55.163Z,14.93
2024-01-14T20:03:59.033Z,15.50
2024-01-14T20:09:04.120Z,18.08
2024-01-14T20:14:10.240Z,18.70
2024-01-14T20:19:13.485Z,15.57
2024-01-14T20:24:18.052Z,17.52
2024-01-14T20:29:23.224Z,16.15
2024-01-14T20:34:29.555Z,15.80
2024-01-14T20:39:34.408Z,13.95
2024-01-14T20:44:39.239Z,13.52
2024-01-14T20:49:43.919Z,14.32
2024-01-14T20:54:46.996Z,14.00
2024-01-14T20:59:51.356Z,12.45
2024-01-14T21:04:57.025Z,12.98
2024-01-14T21:10:00.071Z,10.70
2024-01-14T21:15:04.650Z,11.98
2024-01-14T21:20:09.851Z,12.27
2024-01-14T21:25:12.766Z,12.48
2024-01-14T21:30:16.270Z,12.63
2024-01-14T21:35:19.607Z,13.63
2024-01-14T21:40:23.042Z,12.30
2024-01-14T21:45:30.120Z,11.40
2024-01-14T21:50:33.758Z,11.10
2024-01-14T21:55:47.256Z,14.63
2024-01-14T22:00:50.984Z,12.13
2024-01-14T22:05:53.983Z,11.13
2024-01-14T22:10:56.955Z,12.00
2024-01-14T22:15:59.927Z,11.68
2024-01-14T22:21:05.076Z,11.40
2024-01-14T22:26:08.789Z,11.00
2024-01-14T22:31:13.080Z,10.75
2024-01-14T22:36:16.409Z,11.55
2024-01-14T22:41:19.386Z,11.10
2024-01-14T22:46:22.645Z,11.35
2024-01-14T22:51:25.788Z,10.98
2024-01-14T22:56:28.458Z,10.95
2024-01-14T23:01:31.661Z,11.52
2024-01-14T23:06:35.841Z,10.20
2024-01-14T23:11:40.215Z,10.35
2024-01-14T23:16:43.927Z,11.40
2024-01-14T23:21:46.810Z,10.40
2024-01-14T23:26:49.603Z,10.88
2024-01-14T23:31:52.364Z,10.35
2024-01-14T23:36:56.144Z,10.40
2024-01-14T23:42:01.044Z,10.85
2024-01-14T23:47:04.067Z,10.32
2024-01-14T23:52:07.473Z,10.13
2024-01-14T23:57:09.938Z,10.48
